sensor_id;sensor_type;location;lat;lon;timestamp;P1;durP1;ratioP1;P2;durP2;ratioP2
6517;SDS011;3292;48.944;9.240;2023-04-24T00:02:23;2.77;;;1.53;;
6517;SDS011;3292;48.944;9.240;2023-04-24T00:04:50;2.73;;;1.70;;
6517;SDS011;3292;48.944;9.240;2023-04-24T00:07:17;1.60;;;1.50;;
6517;SDS011;3292;48.944;9.240;2023-04-24T00:09:45;3.20;;;1.53;;
6517;SDS011;3292;48.944;9.240;2023-04-24T00:12:12;1.63;;;1.53;;
6517;SDS011;3292;48.944;9.240;2023-04-24T00:14:38;2.30;;;1.63;;
6517;SDS011;3292;48.944;9.240;2023-04-24T00:17:05;2.40;;;1.67;;
6517;SDS011;3292;48.944;9.240;2023-04-24T00:19:33;1.70;;;1.60;;
6517;SDS011;3292;48.944;9.240;2023-04-24T00:22:00;2.50;;;1.70;;
6517;SDS011;3292;48.944;9.240;2023-04-24T00:24:28;1.63;;;1.53;;
6517;SDS011;3292;48.944;9.240;2023-04-24T00:26:55;1.60;;;1.50;;
6517;SDS011;3292;48.944;9.240;2023-04-24T00:29:22;2.23;;;1.67;;
6517;SDS011;3292;48.944;9.240;2023-04-24T00:31:49;1.97;;;1.30;;
6517;SDS011;3292;48.944;9.240;2023-04-24T00:34:16;1.93;;;1.50;;
6517;SDS011;3292;48.944;9.240;2023-04-24T00:36:44;1.70;;;1.60;;
6517;SDS011;3292;48.944;9.240;2023-04-24T00:39:11;1.93;;;1.50;;
6517;SDS011;3292;48.944;9.240;2023-04-24T00:41:38;2.00;;;1.50;;
6517;SDS011;3292;48.944;9.240;2023-04-24T00:44:04;1.87;;;1.60;;
6517;SDS011;3292;48.944;9.240;2023-04-24T00:46:32;2.60;;;1.50;;
6517;SDS011;3292;48.944;9.240;2023-04-24T00:48:59;1.50;;;1.40;;
6517;SDS011;3292;48.944;9.240;2023-04-24T00:51:25;1.60;;;1.50;;
6517;SDS011;3292;48.944;9.240;2023-04-24T00:53:54;2.50;;;1.60;;
6517;SDS011;3292;48.944;9.240;2023-04-24T00:56:20;2.60;;;1.87;;
6517;SDS011;3292;48.944;9.240;2023-04-24T00:58:48;1.60;;;1.50;;
6517;SDS011;3292;48.944;9.240;2023-04-24T01:01:15;3.60;;;1.77;;
6517;SDS011;3292;48.944;9.240;2023-04-24T01:03:43;2.03;;;1.43;;
6517;SDS011;3292;48.944;9.240;2023-04-24T01:06:10;1.97;;;1.40;;
6517;SDS011;3292;48.944;9.240;2023-04-24T01:08:38;1.87;;;1.67;;
6517;SDS011;3292;48.944;9.240;2023-04-24T01:11:07;2.87;;;1.57;;
6517;SDS011;3292;48.944;9.240;2023-04-24T01:13:34;1.60;;;1.50;;
6517;SDS011;3292;48.944;9.240;2023-04-24T01:16:01;1.93;;;1.70;;
6517;SDS011;3292;48.944;9.240;2023-04-24T01:18:28;2.17;;;1.60;;
6517;SDS011;3292;48.944;9.240;2023-04-24T01:20:56;1.57;;;1.40;;
6517;SDS011;3292;48.944;9.240;2023-04-24T01:23:26;3.17;;;1.60;;
6517;SDS011;3292;48.944;9.240;2023-04-24T01:25:53;1.77;;;1.40;;
6517;SDS011;3292;48.944;9.240;2023-04-24T01:28:20;2.67;;;1.60;;
6517;SDS011;3292;48.944;9.240;2023-04-24T01:30:47;2.20;;;1.33;;
6517;SDS011;3292;48.944;9.240;2023-04-24T01:33:14;1.97;;;1.43;;
6517;SDS011;3292;48.944;9.240;2023-04-24T01:35:42;1.67;;;1.40;;
6517;SDS011;3292;48.944;9.240;2023-04-24T01:38:09;1.93;;;1.43;;
6517;SDS011;3292;48.944;9.240;2023-04-24T01:40:37;2.23;;;1.30;;
6517;SDS011;3292;48.944;9.240;2023-04-24T01:43:04;2.37;;;1.40;;
6517;SDS011;3292;48.944;9.240;2023-04-24T01:45:31;1.60;;;1.50;;
6517;SDS011;3292;48.944;9.240;2023-04-24T01:47:58;1.60;;;1.50;;
6517;SDS011;3292;48.944;9.240;2023-04-24T01:50:26;2.90;;;1.77;;
6517;SDS011;3292;48.944;9.240;2023-04-24T01:52:53;1.80;;;1.30;;
6517;SDS011;3292;48.944;9.240;2023-04-24T01:55:20;1.93;;;1.70;;
6517;SDS011;3292;48.944;9.240;2023-04-24T01:57:48;3.03;;;1.63;;
6517;SDS011;3292;48.944;9.240;2023-04-24T02:00:16;1.90;;;1.60;;
6517;SDS011;3292;48.944;9.240;2023-04-24T02:02:42;1.70;;;1.60;;
6517;SDS011;3292;48.944;9.240;2023-04-24T02:05:10;2.03;;;1.40;;
6517;SDS011;3292;48.944;9.240;2023-04-24T02:07:37;1.50;;;1.40;;
6517;SDS011;3292;48.944;9.240;2023-04-24T02:10:04;2.73;;;1.70;;
6517;SDS011;3292;48.944;9.240;2023-04-24T02:12:31;3.23;;;1.40;;
6517;SDS011;3292;48.944;9.240;2023-04-24T02:15:00;1.53;;;1.43;;
6517;SDS011;3292;48.944;9.240;2023-04-24T02:17:27;2.17;;;1.57;;
6517;SDS011;3292;48.944;9.240;2023-04-24T02:19:53;2.53;;;1.80;;
6517;SDS011;3292;48.944;9.240;2023-04-24T02:22:20;2.40;;;1.70;;
6517;SDS011;3292;48.944;9.240;2023-04-24T02:24:47;1.60;;;1.50;;
6517;SDS011;3292;48.944;9.240;2023-04-24T02:27:14;2.00;;;1.40;;
6517;SDS011;3292;48.944;9.240;2023-04-24T02:29:41;1.90;;;1.80;;
6517;SDS011;3292;48.944;9.240;2023-04-24T02:32:09;1.90;;;1.80;;
6517;SDS011;3292;48.944;9.240;2023-04-24T02:34:36;2.13;;;1.60;;
6517;SDS011;3292;48.944;9.240;2023-04-24T02:37:03;2.00;;;1.30;;
6517;SDS011;3292;48.944;9.240;2023-04-24T02:39:30;2.67;;;1.60;;
6517;SDS011;3292;48.944;9.240;2023-04-24T02:41:57;1.70;;;1.60;;
6517;SDS011;3292;48.944;9.240;2023-04-24T02:44:24;3.07;;;1.63;;
6517;SDS011;3292;48.944;9.240;2023-04-24T02:46:50;1.97;;;1.60;;
6517;SDS011;3292;48.944;9.240;2023-04-24T02:49:19;1.57;;;1.47;;
6517;SDS011;3292;48.944;9.240;2023-04-24T02:51:45;2.70;;;1.80;;
6517;SDS011;3292;48.944;9.240;2023-04-24T02:54:12;2.33;;;1.53;;
6517;SDS011;3292;48.944;9.240;2023-04-24T02:56:39;2.27;;;1.70;;
6517;SDS011;3292;48.944;9.240;2023-04-24T02:59:06;1.93;;;1.40;;
6517;SDS011;3292;48.944;9.240;2023-04-24T03:01:33;1.60;;;1.40;;
6517;SDS011;3292;48.944;9.240;2023-04-24T03:04:00;4.40;;;2.10;;
6517;SDS011;3292;48.944;9.240;2023-04-24T03:06:28;3.37;;;1.40;;
6517;SDS011;3292;48.944;9.240;2023-04-24T03:08:56;1.70;;;1.60;;
6517;SDS011;3292;48.944;9.240;2023-04-24T03:11:23;2.40;;;1.60;;
6517;SDS011;3292;48.944;9.240;2023-04-24T03:13:50;2.17;;;1.50;;
6517;SDS011;3292;48.944;9.240;2023-04-24T03:16:17;1.70;;;1.60;;
6517;SDS011;3292;48.944;9.240;2023-04-24T03:18:43;2.17;;;1.60;;
6517;SDS011;3292;48.944;9.240;2023-04-24T03:21:11;1.97;;;1.67;;
6517;SDS011;3292;48.944;9.240;2023-04-24T03:23:39;1.60;;;1.50;;
6517;SDS011;3292;48.944;9.240;2023-04-24T03:26:06;1.90;;;1.70;;
6517;SDS011;3292;48.944;9.240;2023-04-24T03:28:33;1.40;;;1.30;;
6517;SDS011;3292;48.944;9.240;2023-04-24T03:30:59;1.70;;;1.60;;
6517;SDS011;3292;48.944;9.240;2023-04-24T03:33:26;1.70;;;1.60;;
6517;SDS011;3292;48.944;9.240;2023-04-24T03:35:54;2.40;;;1.60;;
6517;SDS011;3292;48.944;9.240;2023-04-24T03:38:21;1.43;;;1.30;;
6517;SDS011;3292;48.944;9.240;2023-04-24T03:40:49;2.97;;;1.40;;
6517;SDS011;3292;48.944;9.240;2023-04-24T03:43:16;1.77;;;1.67;;
6517;SDS011;3292;48.944;9.240;2023-04-24T03:45:43;2.70;;;1.47;;
6517;SDS011;3292;48.944;9.240;2023-04-24T03:48:10;2.57;;;1.47;;
6517;SDS011;3292;48.944;9.240;2023-04-24T03:50:37;1.60;;;1.50;;
6517;SDS011;3292;48.944;9.240;2023-04-24T03:53:04;2.17;;;1.60;;
6517;SDS011;3292;48.944;9.240;2023-04-24T03:55:30;1.60;;;1.50;;
6517;SDS011;3292;48.944;9.240;2023-04-24T03:57:59;1.73;;;1.63;;
6517;SDS011;3292;48.944;9.240;2023-04-24T04:00:25;3.80;;;1.60;;
6517;SDS011;3292;48.944;9.240;2023-04-24T04:02:52;1.50;;;1.40;;
6517;SDS011;3292;48.944;9.240;2023-04-24T04:05:20;1.60;;;1.50;;
6517;SDS011;3292;48.944;9.240;2023-04-24T04:07:46;3.37;;;1.40;;
6517;SDS011;3292;48.944;9.240;2023-04-24T04:10:13;2.33;;;1.60;;
6517;SDS011;3292;48.944;9.240;2023-04-24T04:12:40;2.23;;;1.97;;
6517;SDS011;3292;48.944;9.240;2023-04-24T04:15:08;2.67;;;1.87;;
6517;SDS011;3292;48.944;9.240;2023-04-24T04:17:36;3.50;;;2.00;;
6517;SDS011;3292;48.944;9.240;2023-04-24T04:20:04;4.60;;;1.87;;
6517;SDS011;3292;48.944;9.240;2023-04-24T04:22:34;2.00;;;1.80;;
6517;SDS011;3292;48.944;9.240;2023-04-24T04:25:01;2.03;;;1.50;;
6517;SDS011;3292;48.944;9.240;2023-04-24T04:27:28;1.50;;;1.40;;
6517;SDS011;3292;48.944;9.240;2023-04-24T04:29:57;2.27;;;1.77;;
6517;SDS011;3292;48.944;9.240;2023-04-24T04:32:26;2.27;;;1.50;;
6517;SDS011;3292;48.944;9.240;2023-04-24T04:34:53;1.70;;;1.60;;
6517;SDS011;3292;48.944;9.240;2023-04-24T04:37:19;1.77;;;1.57;;
6517;SDS011;3292;48.944;9.240;2023-04-24T04:39:46;2.47;;;1.83;;
6517;SDS011;3292;48.944;9.240;2023-04-24T04:42:13;1.70;;;1.60;;
6517;SDS011;3292;48.944;9.240;2023-04-24T04:44:40;1.70;;;1.60;;
6517;SDS011;3292;48.944;9.240;2023-04-24T04:47:07;1.90;;;1.80;;
6517;SDS011;3292;48.944;9.240;2023-04-24T04:49:37;2.17;;;1.93;;
6517;SDS011;3292;48.944;9.240;2023-04-24T04:52:04;1.93;;;1.80;;
6517;SDS011;3292;48.944;9.240;2023-04-24T04:54:31;5.13;;;2.30;;
6517;SDS011;3292;48.944;9.240;2023-04-24T04:56:58;2.20;;;1.90;;
6517;SDS011;3292;48.944;9.240;2023-04-24T04:59:25;1.77;;;1.67;;
6517;SDS011;3292;48.944;9.240;2023-04-24T05:01:52;2.40;;;1.90;;
6517;SDS011;3292;48.944;9.240;2023-04-24T05:04:20;2.23;;;1.80;;
6517;SDS011;3292;48.944;9.240;2023-04-24T05:06:48;1.83;;;1.60;;
6517;SDS011;3292;48.944;9.240;2023-04-24T05:09:16;4.90;;;1.90;;
6517;SDS011;3292;48.944;9.240;2023-04-24T05:11:43;2.50;;;2.10;;
6517;SDS011;3292;48.944;9.240;2023-04-24T05:14:09;2.60;;;2.10;;
6517;SDS011;3292;48.944;9.240;2023-04-24T05:16:37;3.20;;;2.00;;
6517;SDS011;3292;48.944;9.240;2023-04-24T05:19:04;1.93;;;1.70;;
6517;SDS011;3292;48.944;9.240;2023-04-24T05:21:31;3.97;;;1.70;;
6517;SDS011;3292;48.944;9.240;2023-04-24T05:23:59;2.40;;;2.20;;
6517;SDS011;3292;48.944;9.240;2023-04-24T05:26:26;2.30;;;2.10;;
6517;SDS011;3292;48.944;9.240;2023-04-24T05:28:53;2.73;;;2.53;;
6517;SDS011;3292;48.944;9.240;2023-04-24T05:31:20;2.93;;;2.30;;
6517;SDS011;3292;48.944;9.240;2023-04-24T05:33:46;2.20;;;2.00;;
6517;SDS011;3292;48.944;9.240;2023-04-24T05:36:13;2.53;;;2.10;;
6517;SDS011;3292;48.944;9.240;2023-04-24T05:38:40;2.40;;;2.20;;
6517;SDS011;3292;48.944;9.240;2023-04-24T05:41:08;2.57;;;2.37;;
6517;SDS011;3292;48.944;9.240;2023-04-24T05:43:35;4.00;;;2.27;;
6517;SDS011;3292;48.944;9.240;2023-04-24T05:46:02;3.17;;;2.87;;
6517;SDS011;3292;48.944;9.240;2023-04-24T05:48:29;3.43;;;2.43;;
6517;SDS011;3292;48.944;9.240;2023-04-24T05:50:56;2.87;;;2.57;;
6517;SDS011;3292;48.944;9.240;2023-04-24T05:53:25;2.93;;;2.73;;
6517;SDS011;3292;48.944;9.240;2023-04-24T05:55:52;2.87;;;2.67;;
6517;SDS011;3292;48.944;9.240;2023-04-24T05:58:20;3.43;;;2.60;;
6517;SDS011;3292;48.944;9.240;2023-04-24T06:00:47;2.60;;;2.23;;
6517;SDS011;3292;48.944;9.240;2023-04-24T06:03:14;2.97;;;2.63;;
6517;SDS011;3292;48.944;9.240;2023-04-24T06:05:41;2.77;;;2.57;;
6517;SDS011;3292;48.944;9.240;2023-04-24T06:08:08;4.43;;;2.40;;
6517;SDS011;3292;48.944;9.240;2023-04-24T06:10:36;3.97;;;2.10;;
6517;SDS011;3292;48.944;9.240;2023-04-24T06:13:03;3.77;;;2.00;;
6517;SDS011;3292;48.944;9.240;2023-04-24T06:15:31;2.10;;;1.90;;
6517;SDS011;3292;48.944;9.240;2023-04-24T06:17:59;3.30;;;2.20;;
6517;SDS011;3292;48.944;9.240;2023-04-24T06:20:26;2.67;;;2.13;;
6517;SDS011;3292;48.944;9.240;2023-04-24T06:22:53;2.53;;;2.33;;
6517;SDS011;3292;48.944;9.240;2023-04-24T06:25:20;2.13;;;1.90;;
6517;SDS011;3292;48.944;9.240;2023-04-24T06:27:47;3.70;;;2.47;;
6517;SDS011;3292;48.944;9.240;2023-04-24T06:30:14;2.17;;;1.90;;
6517;SDS011;3292;48.944;9.240;2023-04-24T06:32:42;2.40;;;2.20;;
6517;SDS011;3292;48.944;9.240;2023-04-24T06:35:09;1.80;;;1.70;;
6517;SDS011;3292;48.944;9.240;2023-04-24T06:37:37;2.70;;;1.73;;
6517;SDS011;3292;48.944;9.240;2023-04-24T06:40:05;1.93;;;1.70;;
6517;SDS011;3292;48.944;9.240;2023-04-24T06:42:33;2.47;;;2.00;;
6517;SDS011;3292;48.944;9.240;2023-04-24T06:45:01;2.37;;;2.03;;
6517;SDS011;3292;48.944;9.240;2023-04-24T06:47:28;2.63;;;2.10;;
6517;SDS011;3292;48.944;9.240;2023-04-24T06:49:57;2.73;;;2.20;;
6517;SDS011;3292;48.944;9.240;2023-04-24T06:52:27;2.00;;;1.90;;
6517;SDS011;3292;48.944;9.240;2023-04-24T06:54:59;4.47;;;2.30;;
6517;SDS011;3292;48.944;9.240;2023-04-24T06:57:37;2.47;;;2.27;;
6517;SDS011;3292;48.944;9.240;2023-04-24T07:00:09;2.73;;;2.50;;
6517;SDS011;3292;48.944;9.240;2023-04-24T07:02:38;2.30;;;2.10;;
6517;SDS011;3292;48.944;9.240;2023-04-24T07:05:07;3.87;;;2.50;;
6517;SDS011;3292;48.944;9.240;2023-04-24T07:07:36;2.43;;;2.23;;
6517;SDS011;3292;48.944;9.240;2023-04-24T07:10:11;2.53;;;2.33;;
6517;SDS011;3292;48.944;9.240;2023-04-24T07:12:38;2.50;;;2.30;;
6517;SDS011;3292;48.944;9.240;2023-04-24T07:15:06;3.97;;;2.67;;
6517;SDS011;3292;48.944;9.240;2023-04-24T07:17:40;2.50;;;2.30;;
6517;SDS011;3292;48.944;9.240;2023-04-24T07:20:12;2.43;;;2.23;;
6517;SDS011;3292;48.944;9.240;2023-04-24T07:22:43;2.60;;;2.40;;
6517;SDS011;3292;48.944;9.240;2023-04-24T07:25:11;2.50;;;2.30;;
6517;SDS011;3292;48.944;9.240;2023-04-24T07:27:41;2.67;;;2.43;;
6517;SDS011;3292;48.944;9.240;2023-04-24T07:30:17;2.97;;;2.30;;
6517;SDS011;3292;48.944;9.240;2023-04-24T07:32:54;2.77;;;2.23;;
6517;SDS011;3292;48.944;9.240;2023-04-24T07:35:48;2.57;;;2.13;;
6517;SDS011;3292;48.944;9.240;2023-04-24T07:38:20;3.20;;;2.20;;
6517;SDS011;3292;48.944;9.240;2023-04-24T07:40:48;3.30;;;2.37;;
6517;SDS011;3292;48.944;9.240;2023-04-24T07:43:21;2.50;;;2.30;;
6517;SDS011;3292;48.944;9.240;2023-04-24T07:45:49;3.97;;;2.20;;
6517;SDS011;3292;48.944;9.240;2023-04-24T07:48:21;3.03;;;2.20;;
6517;SDS011;3292;48.944;9.240;2023-04-24T07:50:52;3.97;;;2.40;;
6517;SDS011;3292;48.944;9.240;2023-04-24T07:53:28;2.40;;;2.20;;
6517;SDS011;3292;48.944;9.240;2023-04-24T07:56:13;2.63;;;2.43;;
6517;SDS011;3292;48.944;9.240;2023-04-24T07:58:42;2.77;;;2.27;;
6517;SDS011;3292;48.944;9.240;2023-04-24T08:01:10;4.97;;;2.30;;
6517;SDS011;3292;48.944;9.240;2023-04-24T08:03:41;3.40;;;2.17;;
6517;SDS011;3292;48.944;9.240;2023-04-24T08:09:25;3.00;;;2.20;;
6517;SDS011;3292;48.944;9.240;2023-04-24T08:11:52;2.47;;;2.00;;
6517;SDS011;3292;48.944;9.240;2023-04-24T08:14:20;2.90;;;2.10;;
6517;SDS011;3292;48.944;9.240;2023-04-24T08:16:51;3.30;;;1.77;;
6517;SDS011;3292;48.944;9.240;2023-04-24T08:19:21;1.90;;;1.77;;
6517;SDS011;3292;48.944;9.240;2023-04-24T08:21:56;2.57;;;1.70;;
6517;SDS011;3292;48.944;9.240;2023-04-24T08:24:26;2.13;;;1.80;;
6517;SDS011;3292;48.944;9.240;2023-04-24T08:26:53;3.63;;;2.30;;
6517;SDS011;3292;48.944;9.240;2023-04-24T08:29:23;1.90;;;1.80;;
6517;SDS011;3292;48.944;9.240;2023-04-24T08:31:56;2.13;;;1.93;;
6517;SDS011;3292;48.944;9.240;2023-04-24T08:34:25;2.90;;;2.23;;
6517;SDS011;3292;48.944;9.240;2023-04-24T08:36:52;2.30;;;2.10;;
6517;SDS011;3292;48.944;9.240;2023-04-24T08:39:21;2.50;;;2.20;;
6517;SDS011;3292;48.944;9.240;2023-04-24T08:41:48;3.63;;;2.00;;
6517;SDS011;3292;48.944;9.240;2023-04-24T08:44:26;1.83;;;1.70;;
6517;SDS011;3292;48.944;9.240;2023-04-24T08:46:53;2.20;;;2.00;;
6517;SDS011;3292;48.944;9.240;2023-04-24T08:49:25;2.03;;;1.80;;
6517;SDS011;3292;48.944;9.240;2023-04-24T08:51:53;2.23;;;1.80;;
6517;SDS011;3292;48.944;9.240;2023-04-24T08:54:26;1.80;;;1.70;;
6517;SDS011;3292;48.944;9.240;2023-04-24T08:56:59;3.23;;;1.80;;
6517;SDS011;3292;48.944;9.240;2023-04-24T08:59:28;2.70;;;1.93;;
6517;SDS011;3292;48.944;9.240;2023-04-24T09:02:13;2.13;;;1.80;;
6517;SDS011;3292;48.944;9.240;2023-04-24T09:04:45;1.63;;;1.53;;
6517;SDS011;3292;48.944;9.240;2023-04-24T09:07:13;2.27;;;1.63;;
6517;SDS011;3292;48.944;9.240;2023-04-24T09:09:44;2.13;;;1.70;;
6517;SDS011;3292;48.944;9.240;2023-04-24T09:12:12;3.10;;;1.90;;
6517;SDS011;3292;48.944;9.240;2023-04-24T09:14:40;2.47;;;1.70;;
6517;SDS011;3292;48.944;9.240;2023-04-24T09:17:14;3.10;;;2.00;;
6517;SDS011;3292;48.944;9.240;2023-04-24T09:19:42;2.90;;;1.83;;
6517;SDS011;3292;48.944;9.240;2023-04-24T09:22:09;2.30;;;2.00;;
6517;SDS011;3292;48.944;9.240;2023-04-24T09:24:37;2.53;;;1.77;;
6517;SDS011;3292;48.944;9.240;2023-04-24T09:27:07;2.10;;;1.87;;
6517;SDS011;3292;48.944;9.240;2023-04-24T09:29:53;2.07;;;1.87;;
6517;SDS011;3292;48.944;9.240;2023-04-24T09:32:21;2.63;;;2.00;;
6517;SDS011;3292;48.944;9.240;2023-04-24T09:35:12;4.27;;;2.03;;
6517;SDS011;3292;48.944;9.240;2023-04-24T09:37:50;3.20;;;1.80;;
6517;SDS011;3292;48.944;9.240;2023-04-24T09:40:18;2.63;;;1.60;;
6517;SDS011;3292;48.944;9.240;2023-04-24T09:42:54;1.60;;;1.50;;
6517;SDS011;3292;48.944;9.240;2023-04-24T09:45:27;2.40;;;1.70;;
6517;SDS011;3292;48.944;9.240;2023-04-24T09:48:01;2.53;;;1.50;;
6517;SDS011;3292;48.944;9.240;2023-04-24T09:50:33;4.00;;;1.57;;
6517;SDS011;3292;48.944;9.240;2023-04-24T09:53:06;2.23;;;1.60;;
6517;SDS011;3292;48.944;9.240;2023-04-24T09:55:38;1.60;;;1.50;;
6517;SDS011;3292;48.944;9.240;2023-04-24T09:58:16;2.30;;;1.70;;
6517;SDS011;3292;48.944;9.240;2023-04-24T10:00:53;2.07;;;1.80;;
6517;SDS011;3292;48.944;9.240;2023-04-24T10:03:24;1.80;;;1.70;;
6517;SDS011;3292;48.944;9.240;2023-04-24T10:06:03;2.80;;;1.80;;
6517;SDS011;3292;48.944;9.240;2023-04-24T10:08:34;2.07;;;1.90;;
6517;SDS011;3292;48.944;9.240;2023-04-24T10:11:04;2.17;;;1.90;;
6517;SDS011;3292;48.944;9.240;2023-04-24T10:13:35;2.47;;;2.00;;
6517;SDS011;3292;48.944;9.240;2023-04-24T10:16:06;1.90;;;1.77;;
6517;SDS011;3292;48.944;9.240;2023-04-24T10:18:37;2.47;;;1.53;;
6517;SDS011;3292;48.944;9.240;2023-04-24T10:21:13;2.43;;;1.83;;
6517;SDS011;3292;48.944;9.240;2023-04-24T10:23:42;2.60;;;2.00;;
6517;SDS011;3292;48.944;9.240;2023-04-24T10:26:11;2.80;;;1.93;;
6517;SDS011;3292;48.944;9.240;2023-04-24T10:28:57;1.87;;;1.67;;
6517;SDS011;3292;48.944;9.240;2023-04-24T10:31:30;1.90;;;1.80;;
6517;SDS011;3292;48.944;9.240;2023-04-24T10:33:59;2.60;;;1.77;;
6517;SDS011;3292;48.944;9.240;2023-04-24T10:36:27;2.30;;;2.03;;
6517;SDS011;3292;48.944;9.240;2023-04-24T10:38:58;1.80;;;1.70;;
6517;SDS011;3292;48.944;9.240;2023-04-24T10:41:36;3.03;;;2.00;;
6517;SDS011;3292;48.944;9.240;2023-04-24T10:44:06;3.63;;;2.17;;
6517;SDS011;3292;48.944;9.240;2023-04-24T10:46:36;3.27;;;2.00;;
6517;SDS011;3292;48.944;9.240;2023-04-24T10:49:04;2.33;;;2.13;;
6517;SDS011;3292;48.944;9.240;2023-04-24T10:51:45;4.60;;;2.40;;
6517;SDS011;3292;48.944;9.240;2023-04-24T10:54:28;4.33;;;2.30;;
6517;SDS011;3292;48.944;9.240;2023-04-24T11:00:15;4.83;;;2.40;;
6517;SDS011;3292;48.944;9.240;2023-04-24T11:02:45;2.70;;;2.40;;
6517;SDS011;3292;48.944;9.240;2023-04-24T11:05:21;2.27;;;2.13;;
6517;SDS011;3292;48.944;9.240;2023-04-24T11:08:10;6.80;;;2.20;;
6517;SDS011;3292;48.944;9.240;2023-04-24T11:10:40;3.13;;;2.37;;
6517;SDS011;3292;48.944;9.240;2023-04-24T11:13:21;2.17;;;1.97;;
6517;SDS011;3292;48.944;9.240;2023-04-24T11:18:49;2.23;;;2.03;;
6517;SDS011;3292;48.944;9.240;2023-04-24T11:21:19;1.80;;;1.70;;
6517;SDS011;3292;48.944;9.240;2023-04-24T11:23:50;1.80;;;1.70;;
6517;SDS011;3292;48.944;9.240;2023-04-24T11:26:21;3.03;;;1.93;;
6517;SDS011;3292;48.944;9.240;2023-04-24T11:29:06;2.33;;;1.97;;
6517;SDS011;3292;48.944;9.240;2023-04-24T11:31:44;2.57;;;2.00;;
6517;SDS011;3292;48.944;9.240;2023-04-24T11:34:15;2.60;;;2.00;;
6517;SDS011;3292;48.944;9.240;2023-04-24T11:36:43;2.37;;;2.17;;
6517;SDS011;3292;48.944;9.240;2023-04-24T11:39:11;3.33;;;2.23;;
6517;SDS011;3292;48.944;9.240;2023-04-24T11:41:42;2.50;;;2.30;;
6517;SDS011;3292;48.944;9.240;2023-04-24T11:44:10;4.70;;;2.50;;
6517;SDS011;3292;48.944;9.240;2023-04-24T11:46:41;2.60;;;2.40;;
6517;SDS011;3292;48.944;9.240;2023-04-24T11:49:15;2.50;;;2.30;;
6517;SDS011;3292;48.944;9.240;2023-04-24T11:51:46;8.63;;;2.47;;
6517;SDS011;3292;48.944;9.240;2023-04-24T11:54:37;2.83;;;2.40;;
6517;SDS011;3292;48.944;9.240;2023-04-24T11:57:04;3.83;;;2.37;;
6517;SDS011;3292;48.944;9.240;2023-04-24T11:59:36;3.37;;;1.90;;
6517;SDS011;3292;48.944;9.240;2023-04-24T12:02:05;3.10;;;1.90;;
6517;SDS011;3292;48.944;9.240;2023-04-24T12:04:44;10.10;;;2.90;;
6517;SDS011;3292;48.944;9.240;2023-04-24T12:07:39;2.60;;;2.40;;
6517;SDS011;3292;48.944;9.240;2023-04-24T12:10:09;2.63;;;2.30;;
6517;SDS011;3292;48.944;9.240;2023-04-24T12:12:37;2.70;;;2.50;;
6517;SDS011;3292;48.944;9.240;2023-04-24T12:15:07;2.60;;;2.40;;
6517;SDS011;3292;48.944;9.240;2023-04-24T12:17:40;5.43;;;2.70;;
6517;SDS011;3292;48.944;9.240;2023-04-24T12:20:12;5.90;;;2.90;;
6517;SDS011;3292;48.944;9.240;2023-04-24T12:22:44;6.43;;;2.67;;
6517;SDS011;3292;48.944;9.240;2023-04-24T12:25:16;5.63;;;2.67;;
6517;SDS011;3292;48.944;9.240;2023-04-24T12:27:51;4.17;;;3.00;;
6517;SDS011;3292;48.944;9.240;2023-04-24T12:30:26;4.07;;;2.70;;
6517;SDS011;3292;48.944;9.240;2023-04-24T12:33:05;3.20;;;2.73;;
6517;SDS011;3292;48.944;9.240;2023-04-24T12:35:33;2.93;;;1.93;;
6517;SDS011;3292;48.944;9.240;2023-04-24T12:38:07;3.63;;;2.33;;
6517;SDS011;3292;48.944;9.240;2023-04-24T12:40:35;11.50;;;2.70;;
6517;SDS011;3292;48.944;9.240;2023-04-24T12:43:12;7.67;;;2.30;;
6517;SDS011;3292;48.944;9.240;2023-04-24T12:45:41;3.77;;;2.30;;
6517;SDS011;3292;48.944;9.240;2023-04-24T12:48:12;6.47;;;2.53;;
6517;SDS011;3292;48.944;9.240;2023-04-24T12:50:42;2.67;;;2.20;;
6517;SDS011;3292;48.944;9.240;2023-04-24T12:53:10;3.40;;;2.50;;
6517;SDS011;3292;48.944;9.240;2023-04-24T12:55:52;3.03;;;2.83;;
6517;SDS011;3292;48.944;9.240;2023-04-24T12:58:22;3.73;;;2.93;;
6517;SDS011;3292;48.944;9.240;2023-04-24T13:00:53;3.03;;;2.73;;
6517;SDS011;3292;48.944;9.240;2023-04-24T13:03:24;3.33;;;2.93;;
6517;SDS011;3292;48.944;9.240;2023-04-24T13:05:55;4.47;;;3.20;;
6517;SDS011;3292;48.944;9.240;2023-04-24T13:08:27;4.23;;;3.10;;
6517;SDS011;3292;48.944;9.240;2023-04-24T13:10:54;3.33;;;3.03;;
6517;SDS011;3292;48.944;9.240;2023-04-24T13:13:24;4.27;;;3.23;;
6517;SDS011;3292;48.944;9.240;2023-04-24T13:15:52;3.03;;;2.83;;
6517;SDS011;3292;48.944;9.240;2023-04-24T13:18:19;3.60;;;3.30;;
6517;SDS011;3292;48.944;9.240;2023-04-24T13:20:52;4.97;;;3.07;;
6517;SDS011;3292;48.944;9.240;2023-04-24T13:23:29;3.60;;;3.30;;
6517;SDS011;3292;48.944;9.240;2023-04-24T13:25:56;4.50;;;3.00;;
6517;SDS011;3292;48.944;9.240;2023-04-24T13:28:24;4.03;;;2.97;;
6517;SDS011;3292;48.944;9.240;2023-04-24T13:30:53;3.83;;;2.90;;
6517;SDS011;3292;48.944;9.240;2023-04-24T13:33:20;3.60;;;2.50;;
6517;SDS011;3292;48.944;9.240;2023-04-24T13:35:52;3.00;;;2.70;;
6517;SDS011;3292;48.944;9.240;2023-04-24T13:38:20;2.70;;;2.50;;
6517;SDS011;3292;48.944;9.240;2023-04-24T13:40:54;3.07;;;2.73;;
6517;SDS011;3292;48.944;9.240;2023-04-24T13:43:23;3.20;;;2.53;;
6517;SDS011;3292;48.944;9.240;2023-04-24T13:45:58;2.90;;;2.70;;
6517;SDS011;3292;48.944;9.240;2023-04-24T13:48:28;4.63;;;3.20;;
6517;SDS011;3292;48.944;9.240;2023-04-24T13:51:05;4.37;;;3.40;;
6517;SDS011;3292;48.944;9.240;2023-04-24T13:53:33;4.27;;;3.30;;
6517;SDS011;3292;48.944;9.240;2023-04-24T13:56:05;3.50;;;3.20;;
6517;SDS011;3292;48.944;9.240;2023-04-24T13:58:33;3.60;;;3.30;;
6517;SDS011;3292;48.944;9.240;2023-04-24T14:01:02;3.90;;;2.70;;
6517;SDS011;3292;48.944;9.240;2023-04-24T14:03:29;5.17;;;2.80;;
6517;SDS011;3292;48.944;9.240;2023-04-24T14:05:59;3.00;;;2.80;;
6517;SDS011;3292;48.944;9.240;2023-04-24T14:08:37;3.57;;;3.20;;
6517;SDS011;3292;48.944;9.240;2023-04-24T14:11:08;3.93;;;2.77;;
6517;SDS011;3292;48.944;9.240;2023-04-24T14:13:36;5.57;;;2.90;;
6517;SDS011;3292;48.944;9.240;2023-04-24T14:16:08;5.87;;;2.90;;
6517;SDS011;3292;48.944;9.240;2023-04-24T14:18:36;2.77;;;2.47;;
6517;SDS011;3292;48.944;9.240;2023-04-24T14:21:04;4.37;;;2.33;;
6517;SDS011;3292;48.944;9.240;2023-04-24T14:23:31;5.60;;;2.73;;
6517;SDS011;3292;48.944;9.240;2023-04-24T14:26:01;3.90;;;2.70;;
6517;SDS011;3292;48.944;9.240;2023-04-24T14:28:34;2.57;;;2.37;;
6517;SDS011;3292;48.944;9.240;2023-04-24T14:31:01;4.97;;;3.03;;
6517;SDS011;3292;48.944;9.240;2023-04-24T14:33:28;5.53;;;3.10;;
6517;SDS011;3292;48.944;9.240;2023-04-24T14:35:55;3.43;;;2.97;;
6517;SDS011;3292;48.944;9.240;2023-04-24T14:38:22;3.27;;;2.70;;
6517;SDS011;3292;48.944;9.240;2023-04-24T14:40:48;4.70;;;2.50;;
6517;SDS011;3292;48.944;9.240;2023-04-24T14:43:16;3.53;;;2.73;;
6517;SDS011;3292;48.944;9.240;2023-04-24T14:45:43;3.00;;;2.70;;
6517;SDS011;3292;48.944;9.240;2023-04-24T14:48:10;3.63;;;2.70;;
6517;SDS011;3292;48.944;9.240;2023-04-24T14:50:37;3.37;;;2.40;;
6517;SDS011;3292;48.944;9.240;2023-04-24T14:53:04;6.63;;;2.73;;
6517;SDS011;3292;48.944;9.240;2023-04-24T14:55:31;2.40;;;2.20;;
6517;SDS011;3292;48.944;9.240;2023-04-24T14:57:59;2.53;;;2.33;;
6517;SDS011;3292;48.944;9.240;2023-04-24T15:00:27;5.67;;;2.37;;
6517;SDS011;3292;48.944;9.240;2023-04-24T15:02:55;2.53;;;2.30;;
6517;SDS011;3292;48.944;9.240;2023-04-24T15:05:22;2.73;;;2.30;;
6517;SDS011;3292;48.944;9.240;2023-04-24T15:07:49;2.40;;;2.20;;
6517;SDS011;3292;48.944;9.240;2023-04-24T15:10:16;2.57;;;2.37;;
6517;SDS011;3292;48.944;9.240;2023-04-24T15:12:43;2.30;;;2.10;;
6517;SDS011;3292;48.944;9.240;2023-04-24T15:15:11;3.03;;;2.23;;
6517;SDS011;3292;48.944;9.240;2023-04-24T15:17:39;2.77;;;2.40;;
6517;SDS011;3292;48.944;9.240;2023-04-24T15:20:06;3.13;;;2.23;;
6517;SDS011;3292;48.944;9.240;2023-04-24T15:22:34;2.27;;;2.07;;
6517;SDS011;3292;48.944;9.240;2023-04-24T15:25:01;2.67;;;2.47;;
6517;SDS011;3292;48.944;9.240;2023-04-24T15:27:38;2.47;;;2.23;;
6517;SDS011;3292;48.944;9.240;2023-04-24T15:30:06;3.17;;;2.30;;
6517;SDS011;3292;48.944;9.240;2023-04-24T15:32:34;2.80;;;2.37;;
6517;SDS011;3292;48.944;9.240;2023-04-24T15:35:02;2.57;;;2.37;;
6517;SDS011;3292;48.944;9.240;2023-04-24T15:37:30;2.20;;;2.00;;
6517;SDS011;3292;48.944;9.240;2023-04-24T15:39:57;2.30;;;2.10;;